KAC675 OKKK-OMDB
Flight info
| Callsign | KAC675 |
|---|---|
| Flight time | 1h 14m |
| Altitude | 39000 |
| Route | SESRU M677 VUTEB |
| Aircraft | B77W/H-SDE1E2E3FGHIJ2J3J4J5M1RWXY/LB1D1 |
Departure
| Time | 2026-04-22 13:06 |
|---|---|
| Airport | Kuwait International Airport (OKKK) |
Arrival
| Time | 2026-04-22 14:20 |
|---|---|
| Airport | Dubai International Airport (OMDB) |
| Time | Latitude | Longitude | Altitude | Speed | Heading |
|---|---|---|---|---|---|
| 2026-04-22 12:34 | 29.24947 | 47.96039 | 174 ft | 0 kts | 66° |
| 2026-04-22 12:51 | 29.24946 | 47.96035 | 174 ft | 2 kts | 66° |
| 2026-04-22 12:52 | 29.24939 | 47.96017 | 174 ft | 2 kts | 70° |
| 2026-04-22 12:52 | 29.24934 | 47.95999 | 172 ft | 2 kts | 74° |
| 2026-04-22 12:52 | 29.24930 | 47.95981 | 172 ft | 2 kts | 82° |
| 2026-04-22 12:52 | 29.24929 | 47.95962 | 171 ft | 2 kts | 94° |
| 2026-04-22 12:53 | 29.24932 | 47.95943 | 170 ft | 2 kts | 118° |
| 2026-04-22 12:53 | 29.24942 | 47.95928 | 170 ft | 2 kts | 145° |
| 2026-04-22 12:53 | 29.24952 | 47.95922 | 170 ft | 1 kts | 154° |
| 2026-04-22 12:53 | 29.24953 | 47.95922 | 170 ft | 0 kts | 154° |
| 2026-04-22 12:56 | 29.24952 | 47.95922 | 170 ft | 0 kts | 154° |
| 2026-04-22 12:56 | 29.24946 | 47.95925 | 170 ft | 1 kts | 154° |
| 2026-04-22 12:57 | 29.24935 | 47.95932 | 170 ft | 2 kts | 153° |
| 2026-04-22 12:57 | 29.24918 | 47.95941 | 172 ft | 3 kts | 153° |
| 2026-04-22 12:57 | 29.24894 | 47.95955 | 173 ft | 5 kts | 153° |
| 2026-04-22 12:57 | 29.24854 | 47.95975 | 170 ft | 8 kts | 155° |
| 2026-04-22 12:58 | 29.24798 | 47.96004 | 170 ft | 10 kts | 155° |
| 2026-04-22 12:58 | 29.24727 | 47.96042 | 170 ft | 12 kts | 154° |
| 2026-04-22 12:58 | 29.24641 | 47.96089 | 170 ft | 15 kts | 155° |
| 2026-04-22 12:58 | 29.24541 | 47.96141 | 170 ft | 17 kts | 155° |
| 2026-04-22 12:59 | 29.24427 | 47.96202 | 170 ft | 19 kts | 155° |
| 2026-04-22 12:59 | 29.24300 | 47.96270 | 169 ft | 21 kts | 155° |
| 2026-04-22 12:59 | 29.24159 | 47.96344 | 168 ft | 23 kts | 156° |
| 2026-04-22 12:59 | 29.24007 | 47.96424 | 169 ft | 24 kts | 155° |
| 2026-04-22 13:00 | 29.23853 | 47.96506 | 169 ft | 24 kts | 155° |
| 2026-04-22 13:00 | 29.23699 | 47.96589 | 170 ft | 24 kts | 154° |
| 2026-04-22 13:00 | 29.23545 | 47.96672 | 172 ft | 24 kts | 155° |
| 2026-04-22 13:00 | 29.23391 | 47.96754 | 172 ft | 24 kts | 155° |
| 2026-04-22 13:01 | 29.23237 | 47.96835 | 172 ft | 24 kts | 155° |
| 2026-04-22 13:01 | 29.23083 | 47.96917 | 172 ft | 24 kts | 155° |
| 2026-04-22 13:01 | 29.22927 | 47.96998 | 172 ft | 25 kts | 155° |
| 2026-04-22 13:01 | 29.22766 | 47.97084 | 171 ft | 26 kts | 155° |
| 2026-04-22 13:02 | 29.22600 | 47.97172 | 171 ft | 27 kts | 155° |
| 2026-04-22 13:02 | 29.22435 | 47.97260 | 171 ft | 27 kts | 155° |
| 2026-04-22 13:02 | 29.22263 | 47.97352 | 170 ft | 27 kts | 155° |
| 2026-04-22 13:02 | 29.22095 | 47.97442 | 170 ft | 27 kts | 155° |
| 2026-04-22 13:03 | 29.21927 | 47.97531 | 169 ft | 27 kts | 155° |
| 2026-04-22 13:03 | 29.21758 | 47.97620 | 170 ft | 27 kts | 155° |
| 2026-04-22 13:03 | 29.21593 | 47.97708 | 171 ft | 23 kts | 155° |
| 2026-04-22 13:03 | 29.21468 | 47.97775 | 172 ft | 17 kts | 155° |
| 2026-04-22 13:04 | 29.21362 | 47.97831 | 173 ft | 17 kts | 155° |
| 2026-04-22 13:04 | 29.21275 | 47.97844 | 173 ft | 11 kts | 214° |
| 2026-04-22 13:04 | 29.21245 | 47.97761 | 173 ft | 12 kts | 274° |
| 2026-04-22 13:04 | 29.21280 | 47.97677 | 172 ft | 10 kts | 298° |
| 2026-04-22 13:05 | 29.21300 | 47.97627 | 171 ft | 5 kts | 319° |
| 2026-04-22 13:05 | 29.21400 | 47.97562 | 170 ft | 40 kts | 334° |
| 2026-04-22 13:05 | 29.21928 | 47.97282 | 169 ft | 125 kts | 335° |
| 2026-04-22 13:05 | 29.22921 | 47.96747 | 291 ft | 177 kts | 335° |
| 2026-04-22 13:06 | 29.24038 | 47.96131 | 1078 ft | 180 kts | 337° |
| 2026-04-22 13:06 | 29.25166 | 47.95543 | 2024 ft | 178 kts | 337° |
| 2026-04-22 13:06 | 29.26339 | 47.94932 | 2628 ft | 196 kts | 338° |
| 2026-04-22 13:06 | 29.27679 | 47.94230 | 2911 ft | 229 kts | 337° |
| 2026-04-22 13:07 | 29.29204 | 47.93428 | 3408 ft | 249 kts | 337° |
| 2026-04-22 13:07 | 29.30802 | 47.92597 | 4321 ft | 256 kts | 337° |
| 2026-04-22 13:07 | 29.32444 | 47.91861 | 5167 ft | 260 kts | 349° |
| 2026-04-22 13:07 | 29.34255 | 47.91843 | 6043 ft | 265 kts | 9° |
| 2026-04-22 13:08 | 29.36031 | 47.92474 | 6880 ft | 269 kts | 20° |
| 2026-04-22 13:08 | 29.37841 | 47.93141 | 7484 ft | 278 kts | 18° |
| 2026-04-22 13:08 | 29.39466 | 47.94399 | 8102 ft | 292 kts | 50° |
| 2026-04-22 13:08 | 29.40326 | 47.96522 | 8906 ft | 299 kts | 76° |
| 2026-04-22 13:09 | 29.40831 | 47.98865 | 9596 ft | 307 kts | 72° |
| 2026-04-22 13:09 | 29.41628 | 48.01228 | 10217 ft | 318 kts | 63° |
| 2026-04-22 13:09 | 29.42639 | 48.03565 | 10654 ft | 339 kts | 61° |
| 2026-04-22 13:09 | 29.43504 | 48.06132 | 10756 ft | 365 kts | 81° |
| 2026-04-22 13:10 | 29.43371 | 48.09129 | 10983 ft | 390 kts | 109° |
| 2026-04-22 13:10 | 29.42374 | 48.12032 | 11549 ft | 398 kts | 116° |
| 2026-04-22 13:10 | 29.41258 | 48.14995 | 12335 ft | 411 kts | 115° |
| 2026-04-22 13:10 | 29.40168 | 48.18061 | 13245 ft | 420 kts | 114° |
| 2026-04-22 13:11 | 29.39091 | 48.21209 | 14123 ft | 428 kts | 114° |
| 2026-04-22 13:11 | 29.38014 | 48.24396 | 15000 ft | 434 kts | 114° |
| 2026-04-22 13:11 | 29.37279 | 48.26563 | 15596 ft | 438 kts | 114° |
| 2026-04-22 13:11 | 29.36168 | 48.29828 | 16516 ft | 443 kts | 115° |
| 2026-04-22 13:12 | 29.34646 | 48.34284 | 17708 ft | 452 kts | 115° |
| 2026-04-22 13:12 | 29.33883 | 48.36516 | 18258 ft | 456 kts | 115° |
| 2026-04-22 13:12 | 29.32718 | 48.39923 | 18986 ft | 463 kts | 115° |
| 2026-04-22 13:12 | 29.31534 | 48.43383 | 19755 ft | 469 kts | 115° |
| 2026-04-22 13:13 | 29.30337 | 48.46878 | 20525 ft | 475 kts | 115° |
| 2026-04-22 13:13 | 29.29123 | 48.50422 | 21266 ft | 481 kts | 115° |
| 2026-04-22 13:13 | 29.27895 | 48.54002 | 21969 ft | 487 kts | 115° |
| 2026-04-22 13:13 | 29.26646 | 48.57641 | 22678 ft | 493 kts | 115° |
| 2026-04-22 13:14 | 29.25383 | 48.61314 | 23362 ft | 499 kts | 116° |
| 2026-04-22 13:14 | 29.24105 | 48.65030 | 23967 ft | 504 kts | 116° |
| 2026-04-22 13:14 | 29.22813 | 48.68784 | 24560 ft | 509 kts | 116° |
| 2026-04-22 13:14 | 29.21507 | 48.72572 | 25168 ft | 513 kts | 116° |
| 2026-04-22 13:15 | 29.20193 | 48.76383 | 25758 ft | 517 kts | 116° |
| 2026-04-22 13:15 | 29.18866 | 48.80227 | 26334 ft | 522 kts | 116° |
| 2026-04-22 13:15 | 29.17526 | 48.84103 | 26880 ft | 526 kts | 116° |
| 2026-04-22 13:15 | 29.16171 | 48.88004 | 27406 ft | 527 kts | 117° |
| 2026-04-22 13:16 | 29.14472 | 48.91706 | 27774 ft | 525 kts | 130° |
| 2026-04-22 13:16 | 29.12016 | 48.94713 | 28209 ft | 511 kts | 147° |
| 2026-04-22 13:16 | 29.09232 | 48.97259 | 28642 ft | 514 kts | 148° |
| 2026-04-22 13:16 | 29.06444 | 48.99827 | 29061 ft | 520 kts | 147° |
| 2026-04-22 13:17 | 29.03679 | 49.02438 | 29578 ft | 522 kts | 146° |
| 2026-04-22 13:17 | 29.00879 | 49.05144 | 30231 ft | 520 kts | 146° |
| 2026-04-22 13:17 | 28.98129 | 49.07831 | 30831 ft | 518 kts | 146° |
| 2026-04-22 13:17 | 28.95395 | 49.10508 | 31385 ft | 516 kts | 146° |
| 2026-04-22 13:18 | 28.92695 | 49.13145 | 31901 ft | 516 kts | 146° |
| 2026-04-22 13:18 | 28.89965 | 49.15801 | 32381 ft | 516 kts | 146° |
| 2026-04-22 13:18 | 28.87231 | 49.18458 | 32894 ft | 515 kts | 146° |
| 2026-04-22 13:18 | 28.84536 | 49.21156 | 33411 ft | 515 kts | 145° |
| 2026-04-22 13:19 | 28.81877 | 49.23889 | 33897 ft | 515 kts | 144° |
| 2026-04-22 13:19 | 28.79223 | 49.26640 | 34291 ft | 515 kts | 144° |
| 2026-04-22 13:19 | 28.76571 | 49.29382 | 34628 ft | 516 kts | 145° |
| 2026-04-22 13:19 | 28.73902 | 49.32125 | 34950 ft | 517 kts | 145° |
| 2026-04-22 13:20 | 28.71220 | 49.34869 | 35292 ft | 518 kts | 145° |
| 2026-04-22 13:20 | 28.68537 | 49.37608 | 35638 ft | 518 kts | 145° |
| 2026-04-22 13:20 | 28.65855 | 49.40344 | 35969 ft | 519 kts | 145° |
| 2026-04-22 13:20 | 28.63199 | 49.43146 | 36286 ft | 523 kts | 141° |
| 2026-04-22 13:21 | 28.60748 | 49.46235 | 36604 ft | 529 kts | 136° |
| 2026-04-22 13:21 | 28.58500 | 49.49579 | 36910 ft | 535 kts | 130° |
| 2026-04-22 13:21 | 28.56513 | 49.53181 | 37232 ft | 539 kts | 126° |
| 2026-04-22 13:21 | 28.54610 | 49.56858 | 37538 ft | 540 kts | 126° |
| 2026-04-22 13:22 | 28.52721 | 49.60534 | 37834 ft | 540 kts | 126° |
| 2026-04-22 13:22 | 28.50807 | 49.64212 | 38111 ft | 541 kts | 126° |
| 2026-04-22 13:22 | 28.48870 | 49.67876 | 38374 ft | 541 kts | 127° |
| 2026-04-22 13:22 | 28.46917 | 49.71535 | 38626 ft | 542 kts | 127° |
| 2026-04-22 13:23 | 28.44950 | 49.75192 | 38786 ft | 542 kts | 129° |
| 2026-04-22 13:23 | 28.40203 | 49.81758 | 38869 ft | 535 kts | 143° |
| 2026-04-22 13:24 | 28.34483 | 49.86991 | 38872 ft | 522 kts | 154° |
| 2026-04-22 13:24 | 28.28438 | 49.91487 | 38861 ft | 516 kts | 155° |
| 2026-04-22 13:25 | 28.22454 | 49.95929 | 38863 ft | 513 kts | 155° |
| 2026-04-22 13:25 | 28.16521 | 50.00396 | 38861 ft | 512 kts | 154° |
| 2026-04-22 13:26 | 28.10600 | 50.04880 | 38868 ft | 512 kts | 154° |
| 2026-04-22 13:26 | 28.04675 | 50.09363 | 38879 ft | 513 kts | 154° |
| 2026-04-22 13:27 | 27.98729 | 50.13851 | 38871 ft | 515 kts | 154° |
| 2026-04-22 13:27 | 27.92761 | 50.18350 | 38871 ft | 516 kts | 154° |
| 2026-04-22 13:28 | 27.86779 | 50.22853 | 38869 ft | 517 kts | 154° |
| 2026-04-22 13:28 | 27.80790 | 50.27356 | 38870 ft | 518 kts | 154° |
| 2026-04-22 13:29 | 27.74792 | 50.31860 | 38872 ft | 518 kts | 154° |
| 2026-04-22 13:29 | 27.68789 | 50.36363 | 38869 ft | 518 kts | 154° |
| 2026-04-22 13:30 | 27.62793 | 50.40854 | 38862 ft | 517 kts | 154° |
| 2026-04-22 13:30 | 27.56834 | 50.45413 | 38866 ft | 518 kts | 153° |
| 2026-04-22 13:31 | 27.50906 | 50.50016 | 38860 ft | 517 kts | 153° |
| 2026-04-22 13:31 | 27.45007 | 50.54565 | 38863 ft | 517 kts | 154° |
| 2026-04-22 13:32 | 27.39066 | 50.59108 | 38859 ft | 517 kts | 154° |
| 2026-04-22 13:32 | 27.33112 | 50.63641 | 38859 ft | 517 kts | 154° |
| 2026-04-22 13:33 | 27.27154 | 50.68178 | 38858 ft | 517 kts | 154° |
| 2026-04-22 13:33 | 27.21188 | 50.72720 | 38853 ft | 518 kts | 154° |
| 2026-04-22 13:34 | 27.15259 | 50.77368 | 38850 ft | 524 kts | 149° |
| 2026-04-22 13:34 | 27.09873 | 50.83005 | 38845 ft | 534 kts | 140° |
| 2026-04-22 13:35 | 27.04715 | 50.89014 | 38847 ft | 534 kts | 141° |
| 2026-04-22 13:35 | 26.99677 | 50.95184 | 38844 ft | 541 kts | 134° |
| 2026-04-22 13:36 | 26.95497 | 51.02275 | 38836 ft | 548 kts | 126° |
| 2026-04-22 13:36 | 26.91584 | 51.09601 | 38835 ft | 547 kts | 126° |
| 2026-04-22 13:37 | 26.87731 | 51.16959 | 38836 ft | 550 kts | 121° |
| 2026-04-22 13:37 | 26.84870 | 51.24946 | 38843 ft | 554 kts | 111° |
| 2026-04-22 13:38 | 26.82519 | 51.33164 | 38842 ft | 554 kts | 110° |
| 2026-04-22 13:38 | 26.78918 | 51.45442 | 38831 ft | 553 kts | 111° |
| 2026-04-22 13:39 | 26.76467 | 51.53592 | 38830 ft | 552 kts | 111° |
| 2026-04-22 13:39 | 26.74022 | 51.61727 | 38834 ft | 552 kts | 111° |
| 2026-04-22 13:40 | 26.71565 | 51.69860 | 38838 ft | 551 kts | 111° |
| 2026-04-22 13:40 | 26.69100 | 51.77976 | 38836 ft | 552 kts | 111° |
| 2026-04-22 13:41 | 26.66658 | 51.86049 | 38840 ft | 552 kts | 111° |
| 2026-04-22 13:41 | 26.64161 | 51.94170 | 38839 ft | 552 kts | 112° |
| 2026-04-22 13:42 | 26.61524 | 52.02240 | 38843 ft | 553 kts | 113° |
| 2026-04-22 13:42 | 26.58854 | 52.10315 | 38836 ft | 555 kts | 113° |
| 2026-04-22 13:43 | 26.56197 | 52.18412 | 38836 ft | 556 kts | 112° |
| 2026-04-22 13:43 | 26.53543 | 52.26524 | 38827 ft | 557 kts | 112° |
| 2026-04-22 13:44 | 26.50880 | 52.34649 | 38822 ft | 557 kts | 112° |
| 2026-04-22 13:44 | 26.48210 | 52.42768 | 38823 ft | 557 kts | 112° |
| 2026-04-22 13:45 | 26.45535 | 52.50885 | 38819 ft | 557 kts | 112° |
| 2026-04-22 13:45 | 26.42859 | 52.58991 | 38815 ft | 556 kts | 112° |
| 2026-04-22 13:46 | 26.40188 | 52.67084 | 38809 ft | 556 kts | 112° |
| 2026-04-22 13:46 | 26.37546 | 52.75170 | 38804 ft | 555 kts | 112° |
| 2026-04-22 13:47 | 26.34892 | 52.83254 | 38805 ft | 554 kts | 112° |
| 2026-04-22 13:47 | 26.32200 | 52.91301 | 38803 ft | 554 kts | 113° |
| 2026-04-22 13:48 | 26.29496 | 52.99345 | 38797 ft | 554 kts | 113° |
| 2026-04-22 13:48 | 26.26796 | 53.07384 | 38798 ft | 555 kts | 112° |
| 2026-04-22 13:49 | 26.24090 | 53.15434 | 38798 ft | 555 kts | 112° |
| 2026-04-22 13:49 | 26.21376 | 53.23493 | 38794 ft | 556 kts | 112° |
| 2026-04-22 13:50 | 26.18674 | 53.31497 | 38793 ft | 556 kts | 113° |
| 2026-04-22 13:50 | 26.15628 | 53.39475 | 38385 ft | 562 kts | 117° |
| 2026-04-22 13:51 | 26.14017 | 53.43384 | 37591 ft | 565 kts | 117° |
| 2026-04-22 13:51 | 26.12346 | 53.47404 | 36859 ft | 562 kts | 117° |
| 2026-04-22 13:51 | 26.10715 | 53.51348 | 36121 ft | 559 kts | 117° |
| 2026-04-22 13:51 | 26.09105 | 53.55274 | 35392 ft | 556 kts | 116° |
| 2026-04-22 13:52 | 26.07541 | 53.59111 | 34540 ft | 545 kts | 116° |
| 2026-04-22 13:52 | 26.06002 | 53.62896 | 33685 ft | 531 kts | 116° |
| 2026-04-22 13:52 | 26.04496 | 53.66600 | 32725 ft | 523 kts | 116° |
| 2026-04-22 13:52 | 26.02991 | 53.70286 | 31820 ft | 525 kts | 116° |
| 2026-04-22 13:53 | 26.01474 | 53.73996 | 30883 ft | 528 kts | 117° |
| 2026-04-22 13:53 | 25.99960 | 53.77723 | 29900 ft | 531 kts | 116° |
| 2026-04-22 13:53 | 25.98474 | 53.81491 | 28984 ft | 531 kts | 116° |
| 2026-04-22 13:53 | 25.97019 | 53.85232 | 28278 ft | 525 kts | 116° |
| 2026-04-22 13:54 | 25.95579 | 53.88937 | 27600 ft | 519 kts | 116° |
| 2026-04-22 13:54 | 25.94148 | 53.92597 | 26945 ft | 514 kts | 116° |
| 2026-04-22 13:54 | 25.92723 | 53.96218 | 26281 ft | 509 kts | 116° |
| 2026-04-22 13:54 | 25.91298 | 53.99802 | 25629 ft | 504 kts | 117° |
| 2026-04-22 13:55 | 25.89789 | 54.03294 | 24991 ft | 499 kts | 120° |
| 2026-04-22 13:55 | 25.88230 | 54.06722 | 24341 ft | 495 kts | 120° |
| 2026-04-22 13:55 | 25.86674 | 54.10116 | 23678 ft | 492 kts | 120° |
| 2026-04-22 13:55 | 25.85143 | 54.13505 | 22967 ft | 489 kts | 120° |
| 2026-04-22 13:56 | 25.83641 | 54.16872 | 22255 ft | 485 kts | 119° |
| 2026-04-22 13:56 | 25.82174 | 54.20222 | 21596 ft | 481 kts | 117° |
| 2026-04-22 13:56 | 25.80933 | 54.23644 | 20945 ft | 478 kts | 111° |
| 2026-04-22 13:56 | 25.79869 | 54.27131 | 20323 ft | 473 kts | 110° |
| 2026-04-22 13:57 | 25.78843 | 54.30557 | 19684 ft | 458 kts | 110° |
| 2026-04-22 13:57 | 25.77860 | 54.33832 | 19085 ft | 439 kts | 110° |
| 2026-04-22 13:57 | 25.76905 | 54.36978 | 18509 ft | 424 kts | 111° |
| 2026-04-22 13:57 | 25.76275 | 54.39030 | 18140 ft | 425 kts | 111° |
| 2026-04-22 13:58 | 25.74984 | 54.43201 | 17271 ft | 430 kts | 111° |
| 2026-04-22 13:58 | 25.74340 | 54.45278 | 16864 ft | 431 kts | 111° |
| 2026-04-22 13:58 | 25.73365 | 54.48419 | 16253 ft | 430 kts | 111° |
| 2026-04-22 13:58 | 25.72395 | 54.51543 | 15651 ft | 427 kts | 111° |
| 2026-04-22 13:59 | 25.71432 | 54.54647 | 15054 ft | 424 kts | 111° |
| 2026-04-22 13:59 | 25.70475 | 54.57729 | 14450 ft | 421 kts | 111° |
| 2026-04-22 13:59 | 25.69521 | 54.60789 | 13856 ft | 419 kts | 111° |
| 2026-04-22 13:59 | 25.68557 | 54.63824 | 13210 ft | 416 kts | 112° |
| 2026-04-22 14:00 | 25.67599 | 54.66810 | 13053 ft | 401 kts | 112° |
| 2026-04-22 14:00 | 25.66681 | 54.69666 | 12941 ft | 386 kts | 112° |
| 2026-04-22 14:00 | 25.65795 | 54.72425 | 12788 ft | 374 kts | 112° |
| 2026-04-22 14:00 | 25.64938 | 54.75092 | 12636 ft | 360 kts | 112° |
| 2026-04-22 14:01 | 25.64127 | 54.77618 | 12469 ft | 336 kts | 112° |
| 2026-04-22 14:01 | 25.63371 | 54.79976 | 12346 ft | 314 kts | 112° |
| 2026-04-22 14:01 | 25.62653 | 54.82208 | 12220 ft | 303 kts | 113° |
| 2026-04-22 14:01 | 25.61956 | 54.84373 | 12101 ft | 293 kts | 113° |
| 2026-04-22 14:02 | 25.61279 | 54.86468 | 11983 ft | 284 kts | 114° |
| 2026-04-22 14:02 | 25.60538 | 54.88468 | 11876 ft | 281 kts | 117° |
| 2026-04-22 14:02 | 25.59730 | 54.90486 | 11781 ft | 291 kts | 117° |
| 2026-04-22 14:02 | 25.58900 | 54.92548 | 11680 ft | 295 kts | 117° |
| 2026-04-22 14:03 | 25.58065 | 54.94642 | 11409 ft | 298 kts | 117° |
| 2026-04-22 14:03 | 25.57234 | 54.96743 | 11130 ft | 296 kts | 117° |
| 2026-04-22 14:03 | 25.56416 | 54.98819 | 10908 ft | 292 kts | 117° |
| 2026-04-22 14:03 | 25.55608 | 55.00871 | 10660 ft | 289 kts | 117° |
| 2026-04-22 14:04 | 25.54811 | 55.02894 | 10413 ft | 285 kts | 117° |
| 2026-04-22 14:04 | 25.53938 | 55.04847 | 10175 ft | 280 kts | 123° |
| 2026-04-22 14:04 | 25.52968 | 55.06706 | 9948 ft | 278 kts | 124° |
| 2026-04-22 14:04 | 25.51990 | 55.08539 | 9708 ft | 276 kts | 124° |
| 2026-04-22 14:05 | 25.51028 | 55.10350 | 9373 ft | 279 kts | 124° |
| 2026-04-22 14:05 | 25.50024 | 55.12255 | 8886 ft | 286 kts | 123° |
| 2026-04-22 14:05 | 25.48065 | 55.16017 | 8228 ft | 287 kts | 123° |
| 2026-04-22 14:06 | 25.47085 | 55.17904 | 8086 ft | 278 kts | 123° |
| 2026-04-22 14:06 | 25.46134 | 55.19727 | 8016 ft | 268 kts | 126° |
| 2026-04-22 14:06 | 25.45023 | 55.21334 | 8038 ft | 263 kts | 135° |
| 2026-04-22 14:06 | 25.43758 | 55.22846 | 8019 ft | 271 kts | 137° |
| 2026-04-22 14:07 | 25.42459 | 55.24375 | 8017 ft | 274 kts | 136° |
| 2026-04-22 14:07 | 25.41169 | 55.25914 | 8009 ft | 272 kts | 136° |
| 2026-04-22 14:07 | 25.39897 | 55.27457 | 8006 ft | 271 kts | 136° |
| 2026-04-22 14:07 | 25.38653 | 55.28976 | 8005 ft | 270 kts | 136° |
| 2026-04-22 14:08 | 25.37401 | 55.30510 | 8013 ft | 268 kts | 135° |
| 2026-04-22 14:08 | 25.36152 | 55.32040 | 8010 ft | 267 kts | 136° |
| 2026-04-22 14:08 | 25.34778 | 55.33388 | 7955 ft | 265 kts | 151° |
| 2026-04-22 14:08 | 25.33138 | 55.34383 | 7642 ft | 273 kts | 157° |
| 2026-04-22 14:09 | 25.31421 | 55.35307 | 7297 ft | 275 kts | 157° |
| 2026-04-22 14:09 | 25.29709 | 55.36237 | 6951 ft | 276 kts | 156° |
| 2026-04-22 14:09 | 25.27993 | 55.37193 | 6607 ft | 277 kts | 156° |
| 2026-04-22 14:09 | 25.26281 | 55.38167 | 6270 ft | 276 kts | 156° |
| 2026-04-22 14:10 | 25.24615 | 55.39130 | 6022 ft | 262 kts | 156° |
| 2026-04-22 14:10 | 25.23007 | 55.40067 | 6030 ft | 265 kts | 155° |
| 2026-04-22 14:10 | 25.21365 | 55.41024 | 5775 ft | 269 kts | 155° |
| 2026-04-22 14:10 | 25.19716 | 55.41988 | 5369 ft | 260 kts | 155° |
| 2026-04-22 14:11 | 25.18165 | 55.42897 | 5011 ft | 252 kts | 155° |
| 2026-04-22 14:11 | 25.16623 | 55.43799 | 4647 ft | 251 kts | 155° |
| 2026-04-22 14:11 | 25.15061 | 55.44710 | 4344 ft | 257 kts | 155° |
| 2026-04-22 14:11 | 25.13469 | 55.45640 | 4018 ft | 258 kts | 155° |
| 2026-04-22 14:12 | 25.11907 | 55.46559 | 3674 ft | 251 kts | 152° |
| 2026-04-22 14:12 | 25.10648 | 55.47862 | 3278 ft | 251 kts | 124° |
| 2026-04-22 14:12 | 25.09768 | 55.49496 | 3045 ft | 247 kts | 123° |
| 2026-04-22 14:12 | 25.08867 | 55.51125 | 2836 ft | 249 kts | 123° |
| 2026-04-22 14:13 | 25.07960 | 55.52755 | 2605 ft | 250 kts | 123° |
| 2026-04-22 14:13 | 25.07062 | 55.54368 | 2300 ft | 243 kts | 122° |
| 2026-04-22 14:13 | 25.06203 | 55.55959 | 2087 ft | 235 kts | 113° |
| 2026-04-22 14:13 | 25.05940 | 55.57655 | 2022 ft | 219 kts | 78° |
| 2026-04-22 14:14 | 25.06554 | 55.59135 | 2029 ft | 210 kts | 44° |
| 2026-04-22 14:14 | 25.07740 | 55.60014 | 2005 ft | 206 kts | 14° |
| 2026-04-22 14:14 | 25.09130 | 55.59998 | 2004 ft | 199 kts | 339° |
| 2026-04-22 14:14 | 25.10362 | 55.59338 | 2039 ft | 203 kts | 332° |
| 2026-04-22 14:15 | 25.11637 | 55.58566 | 2052 ft | 215 kts | 328° |
| 2026-04-22 14:15 | 25.12842 | 55.57581 | 2023 ft | 213 kts | 322° |
| 2026-04-22 14:15 | 25.13928 | 55.56539 | 1996 ft | 201 kts | 312° |
| 2026-04-22 14:15 | 25.14748 | 55.55370 | 2018 ft | 190 kts | 306° |
| 2026-04-22 14:16 | 25.15459 | 55.54168 | 2005 ft | 181 kts | 303° |
| 2026-04-22 14:16 | 25.16099 | 55.53023 | 1986 ft | 169 kts | 302° |
| 2026-04-22 14:16 | 25.16694 | 55.51952 | 2010 ft | 160 kts | 303° |
| 2026-04-22 14:16 | 25.17278 | 55.50894 | 2003 ft | 159 kts | 302° |
| 2026-04-22 14:17 | 25.17836 | 55.49888 | 1998 ft | 148 kts | 302° |
| 2026-04-22 14:17 | 25.18360 | 55.48938 | 1966 ft | 147 kts | 302° |
| 2026-04-22 14:17 | 25.18897 | 55.47972 | 1765 ft | 144 kts | 305° |
| 2026-04-22 14:17 | 25.19410 | 55.47033 | 1553 ft | 140 kts | 306° |
| 2026-04-22 14:18 | 25.19917 | 55.46122 | 1416 ft | 139 kts | 306° |
| 2026-04-22 14:18 | 25.20426 | 55.45209 | 1265 ft | 142 kts | 305° |
| 2026-04-22 14:18 | 25.20943 | 55.44262 | 1055 ft | 145 kts | 305° |
| 2026-04-22 14:18 | 25.21461 | 55.43334 | 867 ft | 142 kts | 306° |
| 2026-04-22 14:19 | 25.21997 | 55.42373 | 700 ft | 151 kts | 303° |
| 2026-04-22 14:19 | 25.22541 | 55.41378 | 509 ft | 150 kts | 305° |
| 2026-04-22 14:19 | 25.23087 | 55.40408 | 255 ft | 146 kts | 304° |
| 2026-04-22 14:19 | 25.23604 | 55.39460 | 69 ft | 141 kts | 304° |
| 2026-04-22 14:20 | 25.24419 | 55.37996 | 35 ft | 74 kts | 301° |
| 2026-04-22 14:20 | 25.24603 | 55.37562 | 32 ft | 45 kts | 278° |
| 2026-04-22 14:20 | 25.24609 | 55.37412 | 31 ft | 3 kts | 268° |
| 2026-04-22 14:21 | 25.24607 | 55.37381 | 29 ft | 2 kts | 264° |
| 2026-04-22 14:21 | 25.24604 | 55.37353 | 28 ft | 5 kts | 265° |
| 2026-04-22 14:22 | 25.24637 | 55.37239 | 28 ft | 12 kts | 298° |
| 2026-04-22 14:22 | 25.24686 | 55.37147 | 28 ft | 15 kts | 303° |
| 2026-04-22 14:22 | 25.24780 | 55.36984 | 28 ft | 12 kts | 301° |
| 2026-04-22 14:23 | 25.24825 | 55.36901 | 28 ft | 13 kts | 300° |
| 2026-04-22 14:23 | 25.24859 | 55.36801 | 28 ft | 16 kts | 284° |
| 2026-04-22 14:23 | 25.24896 | 55.36666 | 26 ft | 21 kts | 300° |
| 2026-04-22 14:23 | 25.24974 | 55.36519 | 27 ft | 23 kts | 301° |
| 2026-04-22 14:24 | 25.25057 | 55.36372 | 27 ft | 23 kts | 303° |
| 2026-04-22 14:24 | 25.25140 | 55.36224 | 27 ft | 23 kts | 302° |
| 2026-04-22 14:24 | 25.25223 | 55.36076 | 27 ft | 23 kts | 302° |
| 2026-04-22 14:24 | 25.25311 | 55.35922 | 26 ft | 24 kts | 302° |
| 2026-04-22 14:25 | 25.25395 | 55.35770 | 26 ft | 22 kts | 302° |
| 2026-04-22 14:25 | 25.25475 | 55.35627 | 26 ft | 22 kts | 302° |
| 2026-04-22 14:25 | 25.25558 | 55.35481 | 29 ft | 22 kts | 302° |
| 2026-04-22 14:25 | 25.25636 | 55.35344 | 31 ft | 18 kts | 302° |
| 2026-04-22 14:26 | 25.25674 | 55.35276 | 28 ft | 0 kts | 302° |
| 2026-04-22 14:26 | 25.25678 | 55.35270 | 29 ft | 3 kts | 302° |
| 2026-04-22 14:27 | 25.25695 | 55.35239 | 29 ft | 7 kts | 301° |
| 2026-04-22 14:27 | 25.25733 | 55.35170 | 29 ft | 14 kts | 301° |
| 2026-04-22 14:27 | 25.25785 | 55.35073 | 29 ft | 15 kts | 303° |
| 2026-04-22 14:27 | 25.25845 | 55.34977 | 29 ft | 15 kts | 304° |
| 2026-04-22 14:28 | 25.25895 | 55.34881 | 27 ft | 14 kts | 297° |
| 2026-04-22 14:28 | 25.25943 | 55.34788 | 30 ft | 14 kts | 301° |
| 2026-04-22 14:28 | 25.25994 | 55.34696 | 30 ft | 14 kts | 301° |